createdAt,value
2023-01-18T17:35:05.831Z,6.75
2023-01-18T17:37:34.179Z,5.07
2023-01-18T17:40:16.040Z,7.75
2023-01-18T17:42:44.200Z,6.38
2023-01-18T17:45:14.548Z,7.55
2023-01-18T17:47:43.292Z,7.60
2023-01-18T17:50:13.233Z,7.03
2023-01-18T17:55:11.347Z,7.82
2023-01-18T17:57:38.388Z,7.85
2023-01-18T18:00:08.023Z,8.48
2023-01-18T18:02:35.509Z,7.50
2023-01-18T18:05:02.596Z,7.95
2023-01-18T18:07:29.737Z,7.13
2023-01-18T18:10:00.903Z,9.40
2023-01-18T18:12:29.577Z,9.60
2023-01-18T18:14:56.648Z,8.88
2023-01-18T18:17:25.009Z,7.82
2023-01-18T18:19:51.859Z,4.95
2023-01-18T18:22:21.927Z,5.38
2023-01-18T18:27:17.368Z,3.22
2023-01-18T18:29:44.462Z,5.05
2023-01-18T18:32:11.803Z,7.00
2023-01-18T18:34:38.732Z,3.83
2023-01-18T18:37:05.629Z,4.47
2023-01-18T18:39:33.240Z,3.40
2023-01-18T18:42:00.492Z,5.15
2023-01-18T18:44:27.400Z,3.67
2023-01-18T18:46:54.374Z,4.40
2023-01-18T18:49:21.303Z,4.88
2023-01-18T18:51:48.236Z,5.35
2023-01-18T18:54:15.074Z,6.78
2023-01-18T18:56:42.406Z,3.33
2023-01-18T18:59:09.295Z,4.70
2023-01-18T19:01:36.407Z,3.80
2023-01-18T19:04:04.472Z,4.68
2023-01-18T19:06:31.256Z,4.25
2023-01-18T19:08:58.317Z,3.95
2023-01-18T19:11:25.060Z,3.83
2023-01-18T19:13:54.301Z,4.60
2023-01-18T19:16:21.016Z,3.80
2023-01-18T19:18:48.206Z,3.35
2023-01-18T19:21:15.051Z,6.22
2023-01-18T19:23:41.821Z,5.22
2023-01-18T19:26:08.521Z,7.00
2023-01-18T19:28:36.167Z,5.57
2023-01-18T19:31:05.596Z,6.63
2023-01-18T19:33:32.646Z,3.88
2023-01-18T19:36:08.338Z,5.07
2023-01-18T19:38:38.727Z,5.32
2023-01-18T19:41:11.137Z,5.32
2023-01-18T19:43:42.700Z,4.57
2023-01-18T19:46:11.574Z,4.03
2023-01-18T19:48:39.303Z,6.82
2023-01-18T19:51:20.272Z,6.15
2023-01-18T19:53:48.308Z,4.65
2023-01-18T19:56:15.066Z,6.60
2023-01-18T19:58:41.851Z,3.92
2023-01-18T20:01:23.149Z,4.07
2023-01-18T20:03:57.412Z,5.30
2023-01-18T20:06:24.195Z,6.10
2023-01-18T20:08:51.657Z,5.90
2023-01-18T20:11:18.931Z,6.03
2023-01-18T20:13:50.513Z,6.00
2023-01-18T20:16:20.467Z,5.40
2023-01-18T20:18:48.699Z,8.70
2023-01-18T20:21:17.982Z,6.97
2023-01-18T20:23:45.554Z,6.50
2023-01-18T20:26:15.395Z,10.15
2023-01-18T20:28:43.904Z,5.40
2023-01-18T20:31:10.906Z,4.60
2023-01-18T20:33:38.414Z,6.35
2023-01-18T20:36:06.772Z,8.00
2023-01-18T20:38:34.274Z,8.98
2023-01-18T20:41:01.464Z,8.52
2023-01-18T20:43:28.324Z,9.77
2023-01-18T20:46:06.557Z,8.98
2023-01-18T20:48:34.809Z,6.05
2023-01-18T20:51:02.516Z,5.65
2023-01-18T20:53:31.616Z,9.45
2023-01-18T20:56:03.426Z,5.78
2023-01-18T20:58:30.650Z,6.35
2023-01-18T21:00:57.615Z,6.70
2023-01-18T21:03:24.564Z,7.40
2023-01-18T21:05:53.574Z,5.70
2023-01-18T21:08:20.337Z,7.10
2023-01-18T21:10:47.161Z,5.32
2023-01-18T21:13:13.902Z,7.75
2023-01-18T21:15:42.476Z,5.55
2023-01-18T21:18:09.237Z,7.05
2023-01-18T21:20:36.020Z,5.68
2023-01-18T21:23:02.789Z,5.43
2023-01-18T21:25:29.818Z,5.18
2023-01-18T21:27:58.198Z,6.25
2023-01-18T21:30:25.286Z,5.53
2023-01-18T21:32:52.063Z,7.53
2023-01-18T21:35:19.063Z,7.85
2023-01-18T21:37:45.837Z,7.25
2023-01-18T21:40:12.783Z,7.15
2023-01-18T21:42:58.293Z,6.47
2023-01-18T21:45:43.388Z,8.13
2023-01-18T21:48:10.259Z,5.03
2023-01-18T21:50:59.396Z,7.13
2023-01-18T21:53:44.679Z,7.00
2023-01-18T21:56:11.528Z,4.75
2023-01-18T21:58:53.607Z,6.97
2023-01-18T22:01:26.379Z,6.70
2023-01-18T22:04:13.551Z,3.83
2023-01-18T22:06:40.449Z,5.22
2023-01-18T22:09:07.947Z,6.35
2023-01-18T22:11:35.618Z,2.55
2023-01-18T22:14:04.551Z,3.13
2023-01-18T22:16:32.373Z,4.30
2023-01-18T22:19:00.339Z,3.83
2023-01-18T22:21:28.470Z,3.25
2023-01-18T22:23:55.673Z,3.13
2023-01-18T22:26:26.952Z,3.25
2023-01-18T22:28:53.863Z,3.95
2023-01-18T22:31:20.831Z,4.25
2023-01-18T22:33:48.448Z,3.47
2023-01-18T22:36:16.999Z,2.72
2023-01-18T22:38:45.437Z,4.13
2023-01-18T22:41:15.558Z,4.45
2023-01-18T22:46:12.689Z,2.03
2023-01-18T22:48:40.637Z,4.47
2023-01-18T22:51:08.658Z,3.00
2023-01-18T22:53:35.438Z,2.25
2023-01-18T22:56:08.172Z,4.30
2023-01-18T22:58:35.701Z,3.33
2023-01-18T23:01:03.100Z,4.97
2023-01-18T23:03:31.223Z,3.80
2023-01-18T23:06:00.494Z,4.80
2023-01-18T23:08:42.353Z,4.55
2023-01-18T23:11:17.423Z,3.83
2023-01-18T23:14:06.356Z,3.70
2023-01-18T23:16:52.304Z,4.70
2023-01-18T23:19:19.505Z,5.78
2023-01-18T23:21:46.295Z,3.90
2023-01-18T23:24:13.542Z,3.40
2023-01-18T23:26:40.284Z,3.38
2023-01-18T23:29:07.125Z,3.13
2023-01-18T23:31:34.032Z,2.50
2023-01-18T23:34:00.795Z,3.47
2023-01-18T23:36:28.060Z,2.67
2023-01-18T23:39:13.240Z,2.75
2023-01-18T23:41:58.520Z,1.80
2023-01-18T23:44:43.900Z,3.78
2023-01-18T23:47:29.110Z,3.22
2023-01-18T23:50:14.414Z,3.47
2023-01-18T23:52:59.664Z,2.63
2023-01-18T23:55:26.563Z,3.08
2023-01-18T23:57:53.324Z,3.72
